Time;durP1;ratioP1;P1;durP2;ratioP2;P2;SDS_P1;SDS_P2;PMS_P1;PMS_P2;Temp;Humidity;BMP_temperature;BMP_pressure;BME280_temperature;BME280_humidity;BME280_pressure;Samples;Min_cycle;Max_cycle;Signal;HPM_P1;HPM_P2
2024/01/17 06:01:02;;;;;;;;;;;;;;;;;;5731588;23;19933;-48
2024/01/17 06:03:28;;;;;;;;;;;;;;;;;;4990519;28;19913;-47
2024/01/17 06:05:54;;;;;;;;;;;;;;;;;;4990221;28;19924;-49
2024/01/17 06:08:20;;;;;;;;;;;;;;;;;;4990161;28;19957;-46
2024/01/17 06:10:46;;;;;;;;;;;;;;;;;;4990640;28;19910;-44
2024/01/17 06:13:11;;;;;;;;;;;;;;;;;;4988503;28;19909;-43
2024/01/17 06:15:37;;;;;;;;;;;;;;;;;;4985448;28;19914;-44
2024/01/17 06:18:03;;;;;;;;;;;;;;;;;;4972412;28;19933;-43
2024/01/17 06:20:30;;;;;;;;;;;;;;;;;;4983264;28;19964;-42
2024/01/17 06:22:56;;;;;;;;;;;;;;;;;;4991510;28;20343;-43
2024/01/17 06:25:22;;;;;;;;;;;;;;;;;;4990011;28;19914;-42
2024/01/17 06:27:48;;;;;;;;;;;;;;;;;;4989583;28;19937;-43
2024/01/17 06:30:14;;;;;;;;;;;;;;;;;;4990244;28;19910;-43
2024/01/17 06:32:40;;;;;;;;;;;;;;;;;;4991468;28;19914;-43
2024/01/17 06:35:10;;;;;;;;;;;;;;;;;;4990706;28;20004;-44
2024/01/17 06:37:36;;;;;;;;;;;;;;;;;;4990620;28;20005;-43
2024/01/17 06:40:02;;;;;;;;;;;;;;;;;;4983295;28;20005;-44
2024/01/17 06:42:27;;;;;;;;;;;;;;;;;;4971238;28;19914;-44
2024/01/17 06:44:53;;;;;;;;;;;;;;;;;;4987286;28;19949;-44
2024/01/17 06:47:19;;;;;;;;;;;;;;;;;;4994897;28;20285;-45
2024/01/17 06:49:45;;;;;;;;;;;;;;;;;;4976262;28;19948;-45
2024/01/17 06:52:11;;;;;;;;;;;;;;;;;;4995293;28;19913;-44
2024/01/17 06:54:37;;;;;;;;;;;;;;;;;;5005598;28;19916;-44
2024/01/17 06:57:03;;;;;;;;;;;;;;;;;;4987739;28;20419;-44
2024/01/17 06:59:29;;;;;;;;;;;;;;;;;;4994085;28;19914;-43
2024/01/17 07:01:55;;;;;;;;;;;;;;;;;;4994081;28;19976;-44
2024/01/17 07:04:21;;;;;;;;;;;;;;;;;;4992144;28;20029;-44
2024/01/17 07:06:47;;;;;;;;;;;;;;;;;;4988426;28;19937;-43
2024/01/17 07:09:13;;;;;;;;;;;;;;;;;;4995620;28;19937;-42
2024/01/17 07:11:38;;;;;;;;;;;;;;;;;;4990918;28;19922;-43
2024/01/17 07:14:05;;;;;;;;;;;;;;;;;;4976418;28;20361;-43
2024/01/17 07:16:30;;;;;;;;;;;;;;;;;;4988319;28;19913;-43
2024/01/17 07:18:58;;;;;;;;;;;;;;;;;;4994208;28;19909;-43
2024/01/17 07:21:24;;;;;;;;;;;;;;;;;;4987069;28;20005;-42
2024/01/17 07:23:51;;;;;;;;;;;;;;;;;;4991132;28;20360;-42
2024/01/17 07:26:17;;;;;;;;;;;;;;;;;;4991570;28;19922;-43
2024/01/17 07:28:43;;;;;;;;;;;;;;;;;;4993318;28;19925;-43
2024/01/17 07:31:09;;;;;;;;;;;;;;;;;;4991360;28;19914;-43
2024/01/17 07:33:35;;;;;;;;;;;;;;;;;;4988891;28;19930;-43
2024/01/17 07:36:01;;;;;;;;;;;;;;;;;;4987549;28;19914;-43
2024/01/17 07:38:27;;;;;;;;;;;;;;;;;;4986428;28;19914;-43
2024/01/17 07:40:53;;;;;;;;;;;;;;;;;;4991671;28;19914;-44
2024/01/17 07:43:19;;;;;;;;;;;;;;;;;;4991746;28;19949;-43
2024/01/17 07:45:45;;;;;;;;;;;;;;;;;;4993423;28;19921;-42
2024/01/17 07:48:12;;;;;;;;;;;;;;;;;;4987031;28;19937;-43
2024/01/17 07:50:39;;;;;;;;;;;;;;;;;;4985838;28;20288;-43
2024/01/17 07:53:07;;;;;;;;;;;;;;;;;;4987996;28;19914;-42
2024/01/17 07:55:33;;;;;;;;;;;;;;;;;;4992635;28;20566;-42
2024/01/17 07:57:59;;;;;;;;;;;;;;;;;;4992381;28;19910;-43
2024/01/17 08:00:25;;;;;;;;;;;;;;;;;;4991633;28;19910;-44
2024/01/17 08:02:51;;;;;;;;;;;;;;;;;;4986974;28;19971;-43
2024/01/17 08:05:17;;;;;;;;;;;;;;;;;;4993021;28;20535;-43
2024/01/17 08:07:43;;;;;;;;;;;;;;;;;;4992977;28;19945;-43
2024/01/17 08:10:09;;;;;;;;;;;;;;;;;;4992068;28;19968;-44
2024/01/17 08:12:35;;;;;;;;;;;;;;;;;;4987100;28;19921;-45
2024/01/17 08:15:00;;;;;;;;;;;;;;;;;;4989897;28;19976;-43
2024/01/17 08:17:26;;;;;;;;;;;;;;;;;;4989008;28;19960;-42
2024/01/17 08:19:52;;;;;;;;;;;;;;;;;;4987273;28;20300;-43
2024/01/17 08:22:18;;;;;;;;;;;;;;;;;;4991669;28;19937;-44
2024/01/17 08:24:45;;;;;;;;;;;;;;;;;;4989830;28;19928;-47
2024/01/17 08:27:10;;;;;;;;;;;;;;;;;;4991977;28;19909;-43
2024/01/17 08:29:36;;;;;;;;;;;;;;;;;;4991937;28;19910;-43
2024/01/17 08:32:02;;;;;;;;;;;;;;;;;;4989272;28;19936;-45
2024/01/17 08:34:28;;;;;;;;;;;;;;;;;;4989461;28;19921;-44
2024/01/17 08:36:54;;;;;;;;;;;;;;;;;;4990943;28;19925;-45
2024/01/17 08:39:20;;;;;;;;;;;;;;;;;;4991884;28;20400;-45
2024/01/17 08:41:47;;;;;;;;;;;;;;;;;;4991814;28;19920;-43
2024/01/17 08:44:13;;;;;;;;;;;;;;;;;;4988972;28;20249;-45
2024/01/17 08:46:39;;;;;;;;;;;;;;;;;;4990328;28;19937;-43
2024/01/17 08:49:04;;;;;;;;;;;;;;;;;;4991598;28;19910;-43
2024/01/17 08:51:31;;;;;;;;;;;;;;;;;;4990924;28;19910;-43
2024/01/17 08:53:57;;;;;;;;;;;;;;;;;;4990352;28;19928;-43
2024/01/17 08:56:24;;;;;;;;;;;;;;;;;;4987801;28;19917;-43
2024/01/17 08:58:49;;;;;;;;;;;;;;;;;;4974554;28;19921;-43
2024/01/17 09:01:15;;;;;;;;;;;;;;;;;;4990088;28;19918;-43
2024/01/17 09:03:43;;;;;;;;;;;;;;;;;;4977435;28;19918;-43
2024/01/17 09:06:09;;;;;;;;;;;;;;;;;;4989503;28;19918;-43
2024/01/17 09:08:35;;;;;;;;;;;;;;;;;;4990711;28;19983;-44
2024/01/17 09:11:01;;;;;;;;;;;;;;;;;;4991161;28;19906;-43
2024/01/17 09:13:26;;;;;;;;;;;;;;;;;;4990260;28;19914;-44
2024/01/17 09:15:52;;;;;;;;;;;;;;;;;;4985778;28;19914;-44
2024/01/17 09:18:20;;;;;;;;;;;;;;;;;;4990337;28;19910;-44
2024/01/17 09:20:46;;;;;;;;;;;;;;;;;;4991949;28;19925;-43
2024/01/17 09:23:13;;;;;;;;;;;;;;;;;;4985129;28;19914;-44
2024/01/17 09:25:39;;;;;;;;;;;;;;;;;;4986164;28;19964;-44
2024/01/17 09:28:04;;;;;;;;;;;;;;;;;;4990885;28;20004;-43
2024/01/17 09:30:30;;;;;;;;;;;;;;;;;;4984362;28;19914;-46
2024/01/17 09:32:56;;;;;;;;;;;;;;;;;;4991496;28;19910;-46
2024/01/17 09:35:22;;;;;;;;;;;;;;;;;;4986211;28;20365;-44
2024/01/17 09:37:48;;;;;;;;;;;;;;;;;;4990604;28;20357;-44
2024/01/17 09:40:14;;;;;;;;;;;;;;;;;;4990542;28;20008;-43
2024/01/17 09:42:40;;;;;;;;;;;;;;;;;;4990654;28;19910;-43
2024/01/17 09:45:06;;;;;;;;;;;;;;;;;;4990610;28;19920;-43
2024/01/17 09:47:33;;;;;;;;;;;;;;;;;;4975926;28;19976;-47
2024/01/17 09:49:59;;;;;;;;;;;;;;;;;;4990699;28;19917;-44
2024/01/17 09:52:26;;;;;;;;;;;;;;;;;;4989456;28;19909;-44
2024/01/17 09:54:52;;;;;;;;;;;;;;;;;;4990191;28;19909;-45
2024/01/17 09:57:19;;;;;;;;;;;;;;;;;;4988455;28;19928;-44
2024/01/17 09:59:44;;;;;;;;;;;;;;;;;;4976391;28;19973;-45
2024/01/17 10:02:12;;;;;;;;;;;;;;;;;;4987064;28;19921;-44
2024/01/17 10:04:38;;;;;;;;;;;;;;;;;;4990296;28;19922;-43
2024/01/17 10:07:04;;;;;;;;;;;;;;;;;;4988235;28;19925;-44
2024/01/17 10:09:30;;;;;;;;;;;;;;;;;;4990603;28;19925;-43
2024/01/17 10:11:56;;;;;;;;;;;;;;;;;;4972542;28;20017;-43
2024/01/17 10:14:23;;;;;;;;;;;;;;;;;;4984892;28;19926;-46
2024/01/17 10:16:49;;;;;;;;;;;;;;;;;;4986725;28;19914;-44
2024/01/17 10:19:16;;;;;;;;;;;;;;;;;;4987901;28;19929;-46
2024/01/17 10:21:43;;;;;;;;;;;;;;;;;;4971972;28;19937;-43
2024/01/17 10:24:09;;;;;;;;;;;;;;;;;;4975358;28;19910;-44
2024/01/17 10:26:35;;;;;;;;;;;;;;;;;;4981200;28;19914;-44
2024/01/17 10:29:01;;;;;;;;;;;;;;;;;;4988849;28;20261;-43
2024/01/17 10:31:27;;;;;;;;;;;;;;;;;;4988672;28;19918;-44
2024/01/17 10:33:53;;;;;;;;;;;;;;;;;;4986776;28;19918;-43
2024/01/17 10:36:19;;;;;;;;;;;;;;;;;;4989554;28;19910;-43
2024/01/17 10:38:46;;;;;;;;;;;;;;;;;;4986637;28;19913;-45
2024/01/17 10:41:12;;;;;;;;;;;;;;;;;;4989705;28;19948;-43
2024/01/17 10:43:38;;;;;;;;;;;;;;;;;;4989448;28;19952;-44
2024/01/17 10:46:04;;;;;;;;;;;;;;;;;;4986318;28;20527;-44
2024/01/17 10:48:31;;;;;;;;;;;;;;;;;;4987205;28;19917;-45
2024/01/17 10:50:57;;;;;;;;;;;;;;;;;;4989405;28;20372;-44
2024/01/17 10:53:23;;;;;;;;;;;;;;;;;;4988524;28;19918;-43
2024/01/17 10:55:49;;;;;;;;;;;;;;;;;;4982478;28;19968;-44
2024/01/17 10:58:14;;;;;;;;;;;;;;;;;;4984503;28;20033;-44
2024/01/17 11:00:40;;;;;;;;;;;;;;;;;;4982386;28;19936;-44
2024/01/17 11:03:08;;;;;;;;;;;;;;;;;;4986821;28;19953;-43
2024/01/17 11:05:34;;;;;;;;;;;;;;;;;;4989546;28;19918;-43
2024/01/17 11:08:00;;;;;;;;;;;;;;;;;;4990146;28;19910;-43
2024/01/17 11:10:26;;;;;;;;;;;;;;;;;;4989265;28;20000;-43
2024/01/17 11:12:52;;;;;;;;;;;;;;;;;;4984472;28;19910;-44
2024/01/17 11:15:17;;;;;;;;;;;;;;;;;;4988420;28;19921;-44
2024/01/17 11:17:45;;;;;;;;;;;;;;;;;;4988110;28;20072;-44
2024/01/17 11:20:11;;;;;;;;;;;;;;;;;;4989680;28;19917;-43
2024/01/17 11:22:37;;;;;;;;;;;;;;;;;;4986004;28;19933;-44
2024/01/17 11:25:03;;;;;;;;;;;;;;;;;;4987598;28;19917;-43
2024/01/17 11:27:29;;;;;;;;;;;;;;;;;;4988911;28;20285;-44
2024/01/17 11:29:55;;;;;;;;;;;;;;;;;;4987956;28;19921;-47
2024/01/17 11:32:21;;;;;;;;;;;;;;;;;;4988494;28;20352;-43
2024/01/17 11:34:47;;;;;;;;;;;;;;;;;;4992918;28;20003;-43
2024/01/17 11:37:13;;;;;;;;;;;;;;;;;;4991870;28;19945;-44
2024/01/17 11:39:39;;;;;;;;;;;;;;;;;;4988378;28;19913;-44
2024/01/17 11:42:05;;;;;;;;;;;;;;;;;;4975364;28;19910;-45
2024/01/17 11:44:30;;;;;;;;;;;;;;;;;;4993180;28;19941;-43
2024/01/17 11:46:57;;;;;;;;;;;;;;;;;;4993710;28;19959;-46
2024/01/17 11:49:23;;;;;;;;;;;;;;;;;;4987888;28;19910;-44
2024/01/17 11:51:49;;;;;;;;;;;;;;;;;;4991035;28;19914;-44
2024/01/17 11:54:15;;;;;;;;;;;;;;;;;;4989685;28;19972;-44
2024/01/17 11:56:41;;;;;;;;;;;;;;;;;;4986127;28;20361;-44
2024/01/17 11:59:09;;;;;;;;;;;;;;;;;;4992316;28;19917;-42
2024/01/17 12:01:34;;;;;;;;;;;;;;;;;;4988900;28;19976;-45
2024/01/17 12:04:00;;;;;;;;;;;;;;;;;;4987402;28;19914;-45
2024/01/17 12:06:26;;;;;;;;;;;;;;;;;;4988635;28;19925;-44
2024/01/17 12:08:52;;;;;;;;;;;;;;;;;;4969993;28;20019;-44
2024/01/17 12:11:19;;;;;;;;;;;;;;;;;;4989429;28;19921;-47
2024/01/17 12:13:45;;;;;;;;;;;;;;;;;;4980459;28;19910;-45
2024/01/17 12:16:11;;;;;;;;;;;;;;;;;;4988265;28;19964;-44
2024/01/17 12:18:37;;;;;;;;;;;;;;;;;;4981067;28;19928;-45
2024/01/17 12:21:03;;;;;;;;;;;;;;;;;;4983413;28;19914;-44
2024/01/17 12:23:28;;;;;;;;;;;;;;;;;;4986315;28;20300;-44
2024/01/17 12:25:55;;;;;;;;;;;;;;;;;;4985642;28;20479;-43
2024/01/17 12:28:21;;;;;;;;;;;;;;;;;;4985448;28;20032;-44
2024/01/17 12:30:47;;;;;;;;;;;;;;;;;;4986226;28;20296;-43
2024/01/17 12:33:13;;;;;;;;;;;;;;;;;;4983726;28;19968;-45
2024/01/17 12:35:39;;;;;;;;;;;;;;;;;;4967233;28;19929;-44
2024/01/17 12:38:05;;;;;;;;;;;;;;;;;;4987995;28;20060;-47
2024/01/17 12:40:32;;;;;;;;;;;;;;;;;;4987884;28;20001;-44
2024/01/17 12:42:59;;;;;;;;;;;;;;;;;;4983858;28;19917;-47
2024/01/17 12:45:25;;;;;;;;;;;;;;;;;;4985664;28;19917;-43
2024/01/17 12:47:52;;;;;;;;;;;;;;;;;;4983341;28;19914;-45
2024/01/17 12:50:18;;;;;;;;;;;;;;;;;;4979892;28;19932;-46
2024/01/17 12:52:43;;;;;;;;;;;;;;;;;;4982110;28;20087;-43
2024/01/17 12:55:10;;;;;;;;;;;;;;;;;;4985483;28;20490;-44
2024/01/17 12:57:35;;;;;;;;;;;;;;;;;;4969394;28;19921;-44
2024/01/17 13:00:09;;;;;;;;;;;;;;;;;;4984211;28;20021;-46
2024/01/17 13:02:36;;;;;;;;;;;;;;;;;;4982419;28;19917;-45
2024/01/17 13:05:02;;;;;;;;;;;;;;;;;;4988213;28;19933;-43
2024/01/17 13:07:27;;;;;;;;;;;;;;;;;;4990467;28;20340;-43
2024/01/17 13:09:53;;;;;;;;;;;;;;;;;;4988446;28;20045;-44
2024/01/17 13:12:20;;;;;;;;;;;;;;;;;;4989541;28;19913;-44
2024/01/17 13:14:47;;;;;;;;;;;;;;;;;;4987447;28;19921;-44
2024/01/17 13:17:15;;;;;;;;;;;;;;;;;;4987577;28;19924;-44
2024/01/17 13:19:41;;;;;;;;;;;;;;;;;;4990356;28;20000;-43
2024/01/17 13:22:07;;;;;;;;;;;;;;;;;;4988713;28;20349;-44
2024/01/17 13:24:33;;;;;;;;;;;;;;;;;;4982454;28;19917;-44
2024/01/17 13:26:59;;;;;;;;;;;;;;;;;;4983541;28;20285;-44
2024/01/17 13:29:26;;;;;;;;;;;;;;;;;;4986365;28;20415;-48
2024/01/17 13:31:52;;;;;;;;;;;;;;;;;;4989956;28;19972;-46
2024/01/17 13:34:18;;;;;;;;;;;;;;;;;;4989900;28;19910;-46
2024/01/17 13:36:44;;;;;;;;;;;;;;;;;;4986551;28;19917;-48
2024/01/17 13:39:10;;;;;;;;;;;;;;;;;;4989802;28;20399;-48
2024/01/17 13:41:36;;;;;;;;;;;;;;;;;;4989953;28;19941;-46
2024/01/17 13:44:02;;;;;;;;;;;;;;;;;;4990054;28;19910;-45
2024/01/17 13:46:28;;;;;;;;;;;;;;;;;;4990283;28;20308;-46
2024/01/17 13:48:54;;;;;;;;;;;;;;;;;;4989703;28;19914;-46
2024/01/17 13:51:22;;;;;;;;;;;;;;;;;;4988533;28;19985;-48
2024/01/17 13:53:53;;;;;;;;;;;;;;;;;;4989447;28;19997;-49
2024/01/17 13:56:19;;;;;;;;;;;;;;;;;;4989929;28;19910;-52
2024/01/17 13:58:44;;;;;;;;;;;;;;;;;;4989575;28;19917;-52
2024/01/17 14:01:10;;;;;;;;;;;;;;;;;;4989540;28;19964;-53
2024/01/17 14:03:36;;;;;;;;;;;;;;;;;;4987280;28;20032;-51
2024/01/17 14:06:03;;;;;;;;;;;;;;;;;;4989670;28;20004;-53
2024/01/17 14:08:29;;;;;;;;;;;;;;;;;;4990081;28;20727;-51
2024/01/17 14:10:58;;;;;;;;;;;;;;;;;;4983361;28;19918;-52
2024/01/17 14:13:24;;;;;;;;;;;;;;;;;;4989470;28;19914;-49
2024/01/17 14:15:50;;;;;;;;;;;;;;;;;;4989052;28;19916;-53
2024/01/17 14:18:16;;;;;;;;;;;;;;;;;;4989222;28;19917;-53
2024/01/17 14:20:42;;;;;;;;;;;;;;;;;;4988863;28;19909;-53
2024/01/17 14:23:08;;;;;;;;;;;;;;;;;;4985830;28;19914;-51
2024/01/17 14:25:34;;;;;;;;;;;;;;;;;;4987840;28;20012;-49
2024/01/17 14:28:00;;;;;;;;;;;;;;;;;;4984726;28;19921;-51
2024/01/17 14:30:29;;;;;;;;;;;;;;;;;;4988998;28;19909;-52
2024/01/17 14:32:56;;;;;;;;;;;;;;;;;;4989046;28;20439;-50
2024/01/17 14:35:22;;;;;;;;;;;;;;;;;;4985176;28;19948;-51
2024/01/17 14:37:48;;;;;;;;;;;;;;;;;;4988886;28;19972;-50
2024/01/17 14:40:14;;;;;;;;;;;;;;;;;;4982782;28;19993;-48
2024/01/17 14:42:40;;;;;;;;;;;;;;;;;;4968015;28;19910;-46
2024/01/17 14:45:12;;;;;;;;;;;;;;;;;;4969151;28;19914;-48
2024/01/17 14:47:38;;;;;;;;;;;;;;;;;;4969254;28;19960;-51
2024/01/17 14:50:04;;;;;;;;;;;;;;;;;;4972396;28;19922;-47
2024/01/17 14:52:30;;;;;;;;;;;;;;;;;;4978587;28;19910;-48
2024/01/17 14:54:56;;;;;;;;;;;;;;;;;;4988847;28;20416;-50
2024/01/17 14:57:22;;;;;;;;;;;;;;;;;;4970889;28;19929;-47
2024/01/17 14:59:48;;;;;;;;;;;;;;;;;;4988601;28;20023;-50
2024/01/17 15:02:14;;;;;;;;;;;;;;;;;;4988880;28;19922;-50
2024/01/17 15:04:40;;;;;;;;;;;;;;;;;;4988822;28;20001;-50
2024/01/17 15:07:06;;;;;;;;;;;;;;;;;;4985619;28;19949;-49
2024/01/17 15:09:35;;;;;;;;;;;;;;;;;;4981612;28;20028;-49
2024/01/17 15:12:01;;;;;;;;;;;;;;;;;;4982376;28;20409;-49
2024/01/17 15:14:27;;;;;;;;;;;;;;;;;;4971466;28;20220;-48
2024/01/17 15:16:53;;;;;;;;;;;;;;;;;;4972710;28;19914;-48
2024/01/17 15:19:19;;;;;;;;;;;;;;;;;;4977212;28;20452;-50
2024/01/17 15:21:46;;;;;;;;;;;;;;;;;;4991325;28;19920;-50
2024/01/17 15:24:12;;;;;;;;;;;;;;;;;;4986340;28;19914;-50
2024/01/17 15:26:38;;;;;;;;;;;;;;;;;;4980980;28;19973;-50
2024/01/17 15:29:03;;;;;;;;;;;;;;;;;;4988676;28;20438;-48
2024/01/17 15:31:29;;;;;;;;;;;;;;;;;;4981065;28;19940;-48
2024/01/17 15:33:55;;;;;;;;;;;;;;;;;;4991332;28;19910;-50
2024/01/17 15:36:21;;;;;;;;;;;;;;;;;;4985523;28;19937;-51
2024/01/17 15:38:52;;;;;;;;;;;;;;;;;;4954427;28;20024;-50
2024/01/17 15:41:18;;;;;;;;;;;;;;;;;;4971876;28;20376;-48
2024/01/17 15:43:44;;;;;;;;;;;;;;;;;;4972062;28;19918;-52
2024/01/17 15:46:11;;;;;;;;;;;;;;;;;;4971994;28;19914;-50
2024/01/17 15:48:37;;;;;;;;;;;;;;;;;;4983696;28;19910;-50
2024/01/17 15:51:03;;;;;;;;;;;;;;;;;;4986435;28;19910;-50
2024/01/17 15:53:33;;;;;;;;;;;;;;;;;;4991210;28;19914;-52
2024/01/17 15:55:59;;;;;;;;;;;;;;;;;;4989380;28;20368;-50
2024/01/17 15:58:25;;;;;;;;;;;;;;;;;;4990639;28;19914;-48
2024/01/17 16:00:51;;;;;;;;;;;;;;;;;;4973136;28;20021;-49
2024/01/17 16:03:17;;;;;;;;;;;;;;;;;;4986332;28;20060;-51
2024/01/17 16:05:43;;;;;;;;;;;;;;;;;;4989946;28;19921;-52
2024/01/17 16:08:09;;;;;;;;;;;;;;;;;;4982610;28;20139;-51
2024/01/17 16:10:35;;;;;;;;;;;;;;;;;;4985776;28;20003;-49
2024/01/17 16:13:01;;;;;;;;;;;;;;;;;;4990570;28;20296;-50
2024/01/17 16:15:26;;;;;;;;;;;;;;;;;;4990492;28;19910;-50
2024/01/17 16:17:52;;;;;;;;;;;;;;;;;;4988964;28;20332;-49
2024/01/17 16:20:19;;;;;;;;;;;;;;;;;;4990507;28;19948;-48
2024/01/17 16:22:45;;;;;;;;;;;;;;;;;;4990410;28;19913;-50
2024/01/17 16:25:10;;;;;;;;;;;;;;;;;;4988880;28;19924;-50
2024/01/17 16:27:36;;;;;;;;;;;;;;;;;;4987466;28;19941;-51
2024/01/17 16:30:02;;;;;;;;;;;;;;;;;;4989929;28;19914;-48
2024/01/17 16:32:28;;;;;;;;;;;;;;;;;;4988403;28;19918;-48
2024/01/17 16:34:55;;;;;;;;;;;;;;;;;;4985000;28;20057;-48
2024/01/17 16:37:21;;;;;;;;;;;;;;;;;;4989996;28;19910;-49
2024/01/17 16:39:48;;;;;;;;;;;;;;;;;;4989717;28;19917;-51
2024/01/17 16:42:14;;;;;;;;;;;;;;;;;;4989995;28;19935;-49
2024/01/17 16:44:40;;;;;;;;;;;;;;;;;;4990089;28;20261;-51
2024/01/17 16:47:06;;;;;;;;;;;;;;;;;;4990741;28;20388;-51
2024/01/17 16:49:33;;;;;;;;;;;;;;;;;;4990086;28;19958;-50
2024/01/17 16:51:59;;;;;;;;;;;;;;;;;;4988545;28;20485;-47
2024/01/17 16:54:25;;;;;;;;;;;;;;;;;;4984885;28;19937;-50
2024/01/17 16:56:51;;;;;;;;;;;;;;;;;;4988673;28;19920;-50
2024/01/17 16:59:18;;;;;;;;;;;;;;;;;;4977399;28;20444;-50
2024/01/17 17:01:43;;;;;;;;;;;;;;;;;;4986294;28;20020;-51
2024/01/17 17:04:09;;;;;;;;;;;;;;;;;;4989989;28;19992;-49
2024/01/17 17:06:35;;;;;;;;;;;;;;;;;;4991552;28;19914;-51
2024/01/17 17:09:01;;;;;;;;;;;;;;;;;;4990856;28;20000;-51
2024/01/17 17:11:27;;;;;;;;;;;;;;;;;;4973358;28;19914;-48
2024/01/17 17:13:53;;;;;;;;;;;;;;;;;;4989557;28;19957;-48
2024/01/17 17:16:19;;;;;;;;;;;;;;;;;;4985762;28;20431;-52
2024/01/17 17:18:45;;;;;;;;;;;;;;;;;;4990709;28;19909;-49
2024/01/17 17:21:11;;;;;;;;;;;;;;;;;;4990696;28;19910;-51
2024/01/17 17:23:36;;;;;;;;;;;;;;;;;;4991354;28;20345;-50
2024/01/17 17:26:02;;;;;;;;;;;;;;;;;;4990645;28;19914;-52
2024/01/17 17:28:31;;;;;;;;;;;;;;;;;;4986756;28;19914;-50
2024/01/17 17:30:57;;;;;;;;;;;;;;;;;;4986761;28;19917;-51
2024/01/17 17:33:23;;;;;;;;;;;;;;;;;;4988690;28;19921;-52
2024/01/17 17:35:49;;;;;;;;;;;;;;;;;;4990505;28;20254;-48
2024/01/17 17:38:16;;;;;;;;;;;;;;;;;;4990367;28;19917;-50
2024/01/17 17:40:42;;;;;;;;;;;;;;;;;;4983934;28;19920;-49
2024/01/17 17:43:08;;;;;;;;;;;;;;;;;;4986615;28;19913;-48
2024/01/17 17:45:34;;;;;;;;;;;;;;;;;;4990310;28;19918;-51
2024/01/17 17:48:00;;;;;;;;;;;;;;;;;;4987041;28;20008;-50
2024/01/17 17:50:26;;;;;;;;;;;;;;;;;;4987219;28;19920;-52
2024/01/17 17:52:52;;;;;;;;;;;;;;;;;;4988804;28;20336;-50
2024/01/17 17:55:18;;;;;;;;;;;;;;;;;;4988079;28;19918;-50
2024/01/17 17:57:44;;;;;;;;;;;;;;;;;;4981913;28;19914;-51
2024/01/17 18:00:10;;;;;;;;;;;;;;;;;;4979897;28;19918;-50
2024/01/17 18:02:36;;;;;;;;;;;;;;;;;;4986941;28;19918;-52
2024/01/17 18:05:01;;;;;;;;;;;;;;;;;;4984924;28;19918;-50
2024/01/17 18:07:30;;;;;;;;;;;;;;;;;;4982274;28;21382;-51
2024/01/17 18:09:56;;;;;;;;;;;;;;;;;;4986219;28;19913;-50
2024/01/17 18:12:26;;;;;;;;;;;;;;;;;;4972435;28;19918;-51
2024/01/17 18:14:52;;;;;;;;;;;;;;;;;;4985906;28;20329;-52
2024/01/17 18:17:17;;;;;;;;;;;;;;;;;;4993076;28;19910;-50
2024/01/17 18:19:43;;;;;;;;;;;;;;;;;;4967631;28;19922;-52
2024/01/17 18:22:09;;;;;;;;;;;;;;;;;;4964044;28;19972;-52
2024/01/17 18:24:35;;;;;;;;;;;;;;;;;;4984332;28;19952;-49
2024/01/17 18:27:01;;;;;;;;;;;;;;;;;;4960101;28;19914;-52
2024/01/17 18:29:27;;;;;;;;;;;;;;;;;;4979063;28;19929;-51
2024/01/17 18:31:53;;;;;;;;;;;;;;;;;;4968759;28;20009;-51
2024/01/17 18:34:22;;;;;;;;;;;;;;;;;;4987061;28;20020;-52
2024/01/17 18:36:48;;;;;;;;;;;;;;;;;;4978668;28;19918;-51
2024/01/17 18:39:14;;;;;;;;;;;;;;;;;;4985627;28;20286;-50
2024/01/17 18:41:40;;;;;;;;;;;;;;;;;;4978979;28;19914;-48
2024/01/17 18:44:06;;;;;;;;;;;;;;;;;;4987423;28;20008;-52
2024/01/17 18:46:32;;;;;;;;;;;;;;;;;;4987235;28;20001;-49
2024/01/17 18:48:58;;;;;;;;;;;;;;;;;;4981737;28;20431;-50
2024/01/17 18:51:26;;;;;;;;;;;;;;;;;;4961362;28;19925;-49
2024/01/17 18:53:54;;;;;;;;;;;;;;;;;;4980999;28;19964;-47
2024/01/17 18:56:21;;;;;;;;;;;;;;;;;;4984315;28;20165;-50
2024/01/17 18:58:47;;;;;;;;;;;;;;;;;;4977322;28;20463;-46
2024/01/17 19:01:13;;;;;;;;;;;;;;;;;;4977185;28;19993;-51
2024/01/17 19:03:39;;;;;;;;;;;;;;;;;;4980067;28;19968;-50
2024/01/17 19:06:05;;;;;;;;;;;;;;;;;;4979285;28;19929;-49
2024/01/17 19:08:30;;;;;;;;;;;;;;;;;;4983862;28;19983;-49
2024/01/17 19:10:56;;;;;;;;;;;;;;;;;;4980880;28;19917;-48
2024/01/17 19:13:23;;;;;;;;;;;;;;;;;;4959503;28;19961;-49
2024/01/17 19:15:50;;;;;;;;;;;;;;;;;;4983175;28;19921;-48
2024/01/17 19:18:16;;;;;;;;;;;;;;;;;;4984278;28;19960;-47
2024/01/17 19:20:45;;;;;;;;;;;;;;;;;;4977803;28;20340;-51
2024/01/17 19:23:11;;;;;;;;;;;;;;;;;;4978937;28;20008;-47
2024/01/17 19:25:37;;;;;;;;;;;;;;;;;;4982119;28;20472;-48
2024/01/17 19:28:03;;;;;;;;;;;;;;;;;;4982218;28;19921;-50
2024/01/17 19:30:29;;;;;;;;;;;;;;;;;;4981116;28;19921;-48
2024/01/17 19:32:55;;;;;;;;;;;;;;;;;;4981651;28;19929;-49
2024/01/17 19:35:23;;;;;;;;;;;;;;;;;;4979999;28;20057;-49
2024/01/17 19:37:49;;;;;;;;;;;;;;;;;;4967317;28;20400;-49
2024/01/17 19:40:14;;;;;;;;;;;;;;;;;;4979838;28;19917;-51
2024/01/17 19:42:40;;;;;;;;;;;;;;;;;;4980959;28;20308;-50
2024/01/17 19:45:06;;;;;;;;;;;;;;;;;;4981084;28;19973;-50
2024/01/17 19:47:32;;;;;;;;;;;;;;;;;;4966649;28;20385;-50
2024/01/17 19:49:58;;;;;;;;;;;;;;;;;;4982928;28;19913;-50
2024/01/17 19:52:24;;;;;;;;;;;;;;;;;;4988037;28;19910;-50
2024/01/17 19:54:50;;;;;;;;;;;;;;;;;;4986181;28;20407;-51
2024/01/17 19:57:16;;;;;;;;;;;;;;;;;;4989530;28;19914;-51
2024/01/17 19:59:42;;;;;;;;;;;;;;;;;;4987029;28;19914;-48
2024/01/17 20:02:07;;;;;;;;;;;;;;;;;;4988969;28;19924;-50
2024/01/17 20:04:33;;;;;;;;;;;;;;;;;;4970022;28;19922;-50
2024/01/17 20:06:59;;;;;;;;;;;;;;;;;;4988697;28;19921;-48
2024/01/17 20:09:25;;;;;;;;;;;;;;;;;;4988476;28;19984;-49
2024/01/17 20:11:52;;;;;;;;;;;;;;;;;;4987050;28;19914;-50
2024/01/17 20:14:18;;;;;;;;;;;;;;;;;;4983567;28;19916;-49
2024/01/17 20:16:44;;;;;;;;;;;;;;;;;;4988843;28;19922;-48
2024/01/17 20:19:12;;;;;;;;;;;;;;;;;;4985488;28;19917;-48
2024/01/17 20:21:38;;;;;;;;;;;;;;;;;;4988523;28;19918;-46
2024/01/17 20:24:04;;;;;;;;;;;;;;;;;;4986564;28;20152;-50
2024/01/17 20:26:29;;;;;;;;;;;;;;;;;;4987660;28;19925;-47
2024/01/17 20:28:55;;;;;;;;;;;;;;;;;;4986159;28;20297;-46
2024/01/17 20:31:21;;;;;;;;;;;;;;;;;;4986801;28;20408;-47
2024/01/17 20:33:47;;;;;;;;;;;;;;;;;;4985937;28;19921;-49
2024/01/17 20:36:16;;;;;;;;;;;;;;;;;;4983294;28;19968;-46
2024/01/17 20:38:42;;;;;;;;;;;;;;;;;;4986158;28;19914;-49
2024/01/17 20:41:08;;;;;;;;;;;;;;;;;;4987390;28;19929;-50
2024/01/17 20:43:34;;;;;;;;;;;;;;;;;;4982821;28;20019;-49
2024/01/17 20:45:59;;;;;;;;;;;;;;;;;;4980329;28;19922;-48
2024/01/17 20:48:26;;;;;;;;;;;;;;;;;;4988084;28;19913;-48
2024/01/17 20:50:53;;;;;;;;;;;;;;;;;;4987518;28;19920;-48
2024/01/17 20:53:19;;;;;;;;;;;;;;;;;;4986399;28;19992;-49
2024/01/17 20:55:45;;;;;;;;;;;;;;;;;;4966575;28;20369;-48
2024/01/17 20:58:11;;;;;;;;;;;;;;;;;;4987325;28;19965;-49
2024/01/17 21:00:37;;;;;;;;;;;;;;;;;;4984089;28;19965;-45
2024/01/17 21:03:03;;;;;;;;;;;;;;;;;;4983068;28;19957;-49
2024/01/17 21:05:28;;;;;;;;;;;;;;;;;;4987985;28;19913;-49
2024/01/17 21:07:55;;;;;;;;;;;;;;;;;;4968348;28;19921;-49
2024/01/17 21:10:21;;;;;;;;;;;;;;;;;;4987197;28;19909;-47
2024/01/17 21:12:47;;;;;;;;;;;;;;;;;;4987328;28;19914;-46
2024/01/17 21:15:13;;;;;;;;;;;;;;;;;;4985254;28;19932;-48
2024/01/17 21:17:40;;;;;;;;;;;;;;;;;;4985301;28;19965;-46
2024/01/17 21:20:06;;;;;;;;;;;;;;;;;;4985238;28;19910;-49
2024/01/17 21:22:32;;;;;;;;;;;;;;;;;;4984286;28;19914;-48
2024/01/17 21:24:58;;;;;;;;;;;;;;;;;;4985004;28;19922;-47
2024/01/17 21:27:28;;;;;;;;;;;;;;;;;;4985692;28;19976;-46
2024/01/17 21:29:54;;;;;;;;;;;;;;;;;;4984235;28;19925;-46
2024/01/17 21:32:20;;;;;;;;;;;;;;;;;;4980635;28;19914;-46
2024/01/17 21:34:46;;;;;;;;;;;;;;;;;;4986872;28;19916;-49
2024/01/17 21:37:12;;;;;;;;;;;;;;;;;;4986074;28;19914;-47
2024/01/17 21:39:38;;;;;;;;;;;;;;;;;;4987035;28;19914;-46
2024/01/17 21:42:04;;;;;;;;;;;;;;;;;;4987058;28;20176;-49
2024/01/17 21:44:30;;;;;;;;;;;;;;;;;;4984737;28;19941;-49
2024/01/17 21:46:56;;;;;;;;;;;;;;;;;;4984362;28;20435;-46
2024/01/17 21:49:22;;;;;;;;;;;;;;;;;;4985084;28;20057;-46
2024/01/17 21:51:48;;;;;;;;;;;;;;;;;;4986399;28;19917;-46
2024/01/17 21:54:15;;;;;;;;;;;;;;;;;;4985985;28;20285;-46
2024/01/17 21:56:41;;;;;;;;;;;;;;;;;;4983247;28;20417;-47
2024/01/17 21:59:07;;;;;;;;;;;;;;;;;;4983706;28;19984;-47
2024/01/17 22:01:33;;;;;;;;;;;;;;;;;;4986603;28;19917;-49
2024/01/17 22:03:59;;;;;;;;;;;;;;;;;;4983302;28;19914;-47
2024/01/17 22:06:27;;;;;;;;;;;;;;;;;;4985006;28;19918;-48
2024/01/17 22:08:53;;;;;;;;;;;;;;;;;;4986195;28;19914;-48
2024/01/17 22:11:19;;;;;;;;;;;;;;;;;;4985600;28;20673;-48
2024/01/17 22:13:45;;;;;;;;;;;;;;;;;;4987621;28;20005;-46
2024/01/17 22:16:11;;;;;;;;;;;;;;;;;;4985897;28;19921;-46
2024/01/17 22:18:37;;;;;;;;;;;;;;;;;;4982987;28;19917;-45
2024/01/17 22:21:02;;;;;;;;;;;;;;;;;;4987463;28;20423;-48
2024/01/17 22:23:28;;;;;;;;;;;;;;;;;;4986582;28;19910;-47
2024/01/17 22:25:55;;;;;;;;;;;;;;;;;;4986394;28;19917;-46
2024/01/17 22:28:21;;;;;;;;;;;;;;;;;;4987101;28;20397;-47
2024/01/17 22:30:47;;;;;;;;;;;;;;;;;;4987713;28;19917;-48
2024/01/17 22:33:13;;;;;;;;;;;;;;;;;;4987307;28;19917;-48
2024/01/17 22:35:39;;;;;;;;;;;;;;;;;;4969573;28;20041;-47
2024/01/17 22:38:05;;;;;;;;;;;;;;;;;;4987296;28;19975;-45